sensor_id;sensor_type;location;lat;lon;timestamp;P1;durP1;ratioP1;P2;durP2;ratioP2
22284;SDS011;11311;52.192;20.900;2022-10-26T00:01:10;32.50;;;24.48;;
22284;SDS011;11311;52.192;20.900;2022-10-26T00:03:41;28.65;;;23.55;;
22284;SDS011;11311;52.192;20.900;2022-10-26T00:06:11;30.45;;;24.92;;
22284;SDS011;11311;52.192;20.900;2022-10-26T00:08:43;37.55;;;23.52;;
22284;SDS011;11311;52.192;20.900;2022-10-26T00:11:12;32.38;;;24.80;;
22284;SDS011;11311;52.192;20.900;2022-10-26T00:13:42;29.75;;;24.90;;
22284;SDS011;11311;52.192;20.900;2022-10-26T00:16:12;29.40;;;24.75;;
22284;SDS011;11311;52.192;20.900;2022-10-26T00:18:42;30.05;;;22.65;;
22284;SDS011;11311;52.192;20.900;2022-10-26T00:21:11;27.17;;;23.85;;
22284;SDS011;11311;52.192;20.900;2022-10-26T00:23:40;27.83;;;24.42;;
22284;SDS011;11311;52.192;20.900;2022-10-26T00:26:10;35.80;;;25.15;;
22284;SDS011;11311;52.192;20.900;2022-10-26T00:28:39;30.17;;;23.35;;
22284;SDS011;11311;52.192;20.900;2022-10-26T00:31:10;28.85;;;23.45;;
22284;SDS011;11311;52.192;20.900;2022-10-26T00:33:40;31.83;;;23.67;;
22284;SDS011;11311;52.192;20.900;2022-10-26T00:36:08;30.75;;;24.30;;
22284;SDS011;11311;52.192;20.900;2022-10-26T00:38:39;38.53;;;25.35;;
22284;SDS011;11311;52.192;20.900;2022-10-26T00:41:14;29.42;;;25.65;;
22284;SDS011;11311;52.192;20.900;2022-10-26T00:43:43;31.23;;;25.33;;
22284;SDS011;11311;52.192;20.900;2022-10-26T00:46:12;33.85;;;25.48;;
22284;SDS011;11311;52.192;20.900;2022-10-26T00:48:43;31.00;;;25.88;;
22284;SDS011;11311;52.192;20.900;2022-10-26T00:51:19;31.98;;;27.20;;
22284;SDS011;11311;52.192;20.900;2022-10-26T00:53:51;30.58;;;27.08;;
22284;SDS011;11311;52.192;20.900;2022-10-26T00:56:22;34.92;;;27.27;;
22284;SDS011;11311;52.192;20.900;2022-10-26T00:58:51;38.45;;;26.90;;
22284;SDS011;11311;52.192;20.900;2022-10-26T01:01:19;31.73;;;26.30;;
22284;SDS011;11311;52.192;20.900;2022-10-26T01:03:48;31.95;;;28.27;;
22284;SDS011;11311;52.192;20.900;2022-10-26T01:06:17;31.40;;;26.63;;
22284;SDS011;11311;52.192;20.900;2022-10-26T01:08:46;31.13;;;25.17;;
22284;SDS011;11311;52.192;20.900;2022-10-26T01:11:15;36.28;;;26.25;;
22284;SDS011;11311;52.192;20.900;2022-10-26T01:13:45;32.25;;;25.42;;
22284;SDS011;11311;52.192;20.900;2022-10-26T01:16:28;33.83;;;25.73;;
22284;SDS011;11311;52.192;20.900;2022-10-26T01:19:12;36.03;;;25.67;;
22284;SDS011;11311;52.192;20.900;2022-10-26T01:22:14;35.50;;;26.25;;
22284;SDS011;11311;52.192;20.900;2022-10-26T01:24:57;39.22;;;27.10;;
22284;SDS011;11311;52.192;20.900;2022-10-26T01:27:31;33.78;;;25.85;;
22284;SDS011;11311;52.192;20.900;2022-10-26T01:36:01;37.95;;;26.35;;
22284;SDS011;11311;52.192;20.900;2022-10-26T01:38:34;30.25;;;26.58;;
22284;SDS011;11311;52.192;20.900;2022-10-26T01:41:10;35.10;;;26.02;;
22284;SDS011;11311;52.192;20.900;2022-10-26T01:43:42;28.77;;;24.50;;
22284;SDS011;11311;52.192;20.900;2022-10-26T01:46:15;37.03;;;23.85;;
22284;SDS011;11311;52.192;20.900;2022-10-26T01:48:45;33.58;;;24.52;;
22284;SDS011;11311;52.192;20.900;2022-10-26T01:51:16;31.10;;;22.92;;
22284;SDS011;11311;52.192;20.900;2022-10-26T01:53:46;26.92;;;22.25;;
22284;SDS011;11311;52.192;20.900;2022-10-26T01:56:17;34.53;;;23.48;;
22284;SDS011;11311;52.192;20.900;2022-10-26T01:58:53;35.65;;;22.15;;
22284;SDS011;11311;52.192;20.900;2022-10-26T02:04:51;28.95;;;21.23;;
22284;SDS011;11311;52.192;20.900;2022-10-26T02:07:30;30.25;;;22.83;;
22284;SDS011;11311;52.192;20.900;2022-10-26T02:10:04;29.60;;;23.00;;
22284;SDS011;11311;52.192;20.900;2022-10-26T02:12:39;35.67;;;22.90;;
22284;SDS011;11311;52.192;20.900;2022-10-26T02:15:10;33.22;;;25.38;;
22284;SDS011;11311;52.192;20.900;2022-10-26T02:17:44;33.65;;;25.77;;
22284;SDS011;11311;52.192;20.900;2022-10-26T02:20:17;35.28;;;23.48;;
22284;SDS011;11311;52.192;20.900;2022-10-26T02:22:48;31.63;;;26.45;;
22284;SDS011;11311;52.192;20.900;2022-10-26T02:25:19;34.33;;;24.88;;
22284;SDS011;11311;52.192;20.900;2022-10-26T02:27:52;34.45;;;25.90;;
22284;SDS011;11311;52.192;20.900;2022-10-26T02:30:22;29.15;;;26.00;;
22284;SDS011;11311;52.192;20.900;2022-10-26T02:32:52;34.88;;;26.02;;
22284;SDS011;11311;52.192;20.900;2022-10-26T02:35:24;33.28;;;25.38;;
22284;SDS011;11311;52.192;20.900;2022-10-26T02:37:54;36.78;;;24.85;;
22284;SDS011;11311;52.192;20.900;2022-10-26T02:40:25;34.05;;;26.10;;
22284;SDS011;11311;52.192;20.900;2022-10-26T02:42:55;37.45;;;26.73;;
22284;SDS011;11311;52.192;20.900;2022-10-26T02:45:26;35.88;;;27.60;;
22284;SDS011;11311;52.192;20.900;2022-10-26T02:47:58;34.17;;;26.23;;
22284;SDS011;11311;52.192;20.900;2022-10-26T02:50:30;38.50;;;25.30;;
22284;SDS011;11311;52.192;20.900;2022-10-26T02:53:04;41.15;;;26.60;;
22284;SDS011;11311;52.192;20.900;2022-10-26T02:55:39;40.15;;;28.38;;
22284;SDS011;11311;52.192;20.900;2022-10-26T02:58:10;33.40;;;27.48;;
22284;SDS011;11311;52.192;20.900;2022-10-26T03:00:42;32.50;;;27.30;;
22284;SDS011;11311;52.192;20.900;2022-10-26T03:03:11;38.17;;;28.70;;
22284;SDS011;11311;52.192;20.900;2022-10-26T03:05:42;38.80;;;29.77;;
22284;SDS011;11311;52.192;20.900;2022-10-26T03:08:11;45.28;;;30.45;;
22284;SDS011;11311;52.192;20.900;2022-10-26T03:10:40;37.42;;;29.98;;
22284;SDS011;11311;52.192;20.900;2022-10-26T03:13:10;44.13;;;31.55;;
22284;SDS011;11311;52.192;20.900;2022-10-26T03:15:39;40.97;;;30.33;;
22284;SDS011;11311;52.192;20.900;2022-10-26T03:18:08;37.05;;;29.50;;
22284;SDS011;11311;52.192;20.900;2022-10-26T03:20:37;43.45;;;30.85;;
22284;SDS011;11311;52.192;20.900;2022-10-26T03:23:07;41.70;;;28.60;;
22284;SDS011;11311;52.192;20.900;2022-10-26T03:25:35;39.85;;;30.08;;
22284;SDS011;11311;52.192;20.900;2022-10-26T03:28:04;37.42;;;28.48;;
22284;SDS011;11311;52.192;20.900;2022-10-26T03:30:33;39.65;;;28.02;;
22284;SDS011;11311;52.192;20.900;2022-10-26T03:33:02;38.63;;;28.92;;
22284;SDS011;11311;52.192;20.900;2022-10-26T03:35:31;44.22;;;28.88;;
22284;SDS011;11311;52.192;20.900;2022-10-26T03:38:00;40.17;;;28.43;;
22284;SDS011;11311;52.192;20.900;2022-10-26T03:40:30;35.10;;;27.88;;
22284;SDS011;11311;52.192;20.900;2022-10-26T03:45:27;36.40;;;29.08;;
22284;SDS011;11311;52.192;20.900;2022-10-26T03:47:56;40.35;;;29.13;;
22284;SDS011;11311;52.192;20.900;2022-10-26T03:50:25;42.50;;;29.63;;
22284;SDS011;11311;52.192;20.900;2022-10-26T03:52:53;46.28;;;33.13;;
22284;SDS011;11311;52.192;20.900;2022-10-26T03:55:22;38.35;;;30.60;;
22284;SDS011;11311;52.192;20.900;2022-10-26T03:57:52;46.55;;;32.65;;
22284;SDS011;11311;52.192;20.900;2022-10-26T04:00:21;39.42;;;31.00;;
22284;SDS011;11311;52.192;20.900;2022-10-26T04:02:52;36.17;;;30.20;;
22284;SDS011;11311;52.192;20.900;2022-10-26T04:05:22;34.88;;;28.92;;
22284;SDS011;11311;52.192;20.900;2022-10-26T04:07:53;34.58;;;28.98;;
22284;SDS011;11311;52.192;20.900;2022-10-26T04:10:22;37.33;;;28.67;;
22284;SDS011;11311;52.192;20.900;2022-10-26T04:12:54;37.20;;;29.10;;
22284;SDS011;11311;52.192;20.900;2022-10-26T04:15:24;43.17;;;29.80;;
22284;SDS011;11311;52.192;20.900;2022-10-26T04:17:57;35.60;;;27.30;;
22284;SDS011;11311;52.192;20.900;2022-10-26T04:20:26;36.78;;;29.02;;
22284;SDS011;11311;52.192;20.900;2022-10-26T04:22:57;42.85;;;28.67;;
22284;SDS011;11311;52.192;20.900;2022-10-26T04:25:25;36.20;;;27.77;;
22284;SDS011;11311;52.192;20.900;2022-10-26T04:28:00;40.25;;;28.10;;
22284;SDS011;11311;52.192;20.900;2022-10-26T04:30:31;39.15;;;29.42;;
22284;SDS011;11311;52.192;20.900;2022-10-26T04:33:00;41.97;;;31.85;;
22284;SDS011;11311;52.192;20.900;2022-10-26T04:35:29;38.88;;;31.60;;
22284;SDS011;11311;52.192;20.900;2022-10-26T04:37:58;45.03;;;34.45;;
22284;SDS011;11311;52.192;20.900;2022-10-26T04:40:27;45.88;;;33.05;;
22284;SDS011;11311;52.192;20.900;2022-10-26T04:42:57;43.38;;;31.50;;
22284;SDS011;11311;52.192;20.900;2022-10-26T04:45:28;46.47;;;33.90;;
22284;SDS011;11311;52.192;20.900;2022-10-26T04:47:58;45.47;;;33.55;;
22284;SDS011;11311;52.192;20.900;2022-10-26T04:50:27;45.42;;;33.08;;
22284;SDS011;11311;52.192;20.900;2022-10-26T04:52:56;45.03;;;33.92;;
22284;SDS011;11311;52.192;20.900;2022-10-26T04:55:26;45.65;;;34.03;;
22284;SDS011;11311;52.192;20.900;2022-10-26T04:57:55;47.80;;;34.22;;
22284;SDS011;11311;52.192;20.900;2022-10-26T05:00:28;53.97;;;35.17;;
22284;SDS011;11311;52.192;20.900;2022-10-26T05:02:59;49.70;;;35.53;;
22284;SDS011;11311;52.192;20.900;2022-10-26T05:05:28;58.03;;;35.42;;
22284;SDS011;11311;52.192;20.900;2022-10-26T05:10:26;61.05;;;38.50;;
22284;SDS011;11311;52.192;20.900;2022-10-26T05:12:56;59.92;;;39.35;;
22284;SDS011;11311;52.192;20.900;2022-10-26T05:15:26;53.72;;;36.70;;
22284;SDS011;11311;52.192;20.900;2022-10-26T05:17:57;50.63;;;35.55;;
22284;SDS011;11311;52.192;20.900;2022-10-26T05:20:27;53.55;;;36.13;;
22284;SDS011;11311;52.192;20.900;2022-10-26T05:22:57;51.67;;;36.88;;
22284;SDS011;11311;52.192;20.900;2022-10-26T05:25:28;49.83;;;35.75;;
22284;SDS011;11311;52.192;20.900;2022-10-26T05:27:57;55.90;;;36.70;;
22284;SDS011;11311;52.192;20.900;2022-10-26T05:30:27;50.63;;;34.17;;
22284;SDS011;11311;52.192;20.900;2022-10-26T05:32:58;53.85;;;33.92;;
22284;SDS011;11311;52.192;20.900;2022-10-26T05:35:28;47.67;;;33.80;;
22284;SDS011;11311;52.192;20.900;2022-10-26T05:37:57;50.70;;;35.60;;
22284;SDS011;11311;52.192;20.900;2022-10-26T05:40:26;47.25;;;32.80;;
22284;SDS011;11311;52.192;20.900;2022-10-26T05:42:58;42.47;;;31.98;;
22284;SDS011;11311;52.192;20.900;2022-10-26T05:45:28;46.80;;;32.17;;
22284;SDS011;11311;52.192;20.900;2022-10-26T05:47:58;43.75;;;31.50;;
22284;SDS011;11311;52.192;20.900;2022-10-26T05:50:29;42.22;;;30.58;;
22284;SDS011;11311;52.192;20.900;2022-10-26T05:52:57;39.95;;;29.38;;
22284;SDS011;11311;52.192;20.900;2022-10-26T05:55:27;39.38;;;27.60;;
22284;SDS011;11311;52.192;20.900;2022-10-26T05:57:57;37.50;;;28.23;;
22284;SDS011;11311;52.192;20.900;2022-10-26T06:00:27;38.38;;;26.77;;
22284;SDS011;11311;52.192;20.900;2022-10-26T06:03:04;39.47;;;28.17;;
22284;SDS011;11311;52.192;20.900;2022-10-26T06:05:37;33.50;;;26.30;;
22284;SDS011;11311;52.192;20.900;2022-10-26T06:08:12;31.33;;;24.30;;
22284;SDS011;11311;52.192;20.900;2022-10-26T06:10:41;38.45;;;24.88;;
22284;SDS011;11311;52.192;20.900;2022-10-26T06:13:10;33.63;;;23.55;;
22284;SDS011;11311;52.192;20.900;2022-10-26T06:15:41;34.00;;;25.67;;
22284;SDS011;11311;52.192;20.900;2022-10-26T06:18:20;27.23;;;23.05;;
22284;SDS011;11311;52.192;20.900;2022-10-26T06:21:06;32.30;;;24.25;;
22284;SDS011;11311;52.192;20.900;2022-10-26T06:23:42;32.63;;;24.88;;
22284;SDS011;11311;52.192;20.900;2022-10-26T06:26:17;35.17;;;25.08;;
22284;SDS011;11311;52.192;20.900;2022-10-26T06:28:54;36.25;;;25.17;;
22284;SDS011;11311;52.192;20.900;2022-10-26T06:31:26;41.97;;;27.30;;
22284;SDS011;11311;52.192;20.900;2022-10-26T06:33:57;44.50;;;30.33;;
22284;SDS011;11311;52.192;20.900;2022-10-26T06:36:27;44.47;;;31.60;;
22284;SDS011;11311;52.192;20.900;2022-10-26T06:38:57;41.38;;;31.27;;
22284;SDS011;11311;52.192;20.900;2022-10-26T06:41:29;50.90;;;35.38;;
22284;SDS011;11311;52.192;20.900;2022-10-26T06:43:59;52.03;;;35.05;;
22284;SDS011;11311;52.192;20.900;2022-10-26T06:46:31;44.15;;;33.90;;
22284;SDS011;11311;52.192;20.900;2022-10-26T06:49:07;50.35;;;32.55;;
22284;SDS011;11311;52.192;20.900;2022-10-26T06:51:42;55.42;;;33.35;;
22284;SDS011;11311;52.192;20.900;2022-10-26T06:54:15;42.90;;;31.83;;
22284;SDS011;11311;52.192;20.900;2022-10-26T06:56:47;46.78;;;31.17;;
22284;SDS011;11311;52.192;20.900;2022-10-26T06:59:20;39.72;;;27.58;;
22284;SDS011;11311;52.192;20.900;2022-10-26T07:01:56;43.33;;;29.95;;
22284;SDS011;11311;52.192;20.900;2022-10-26T07:04:32;42.30;;;29.02;;
22284;SDS011;11311;52.192;20.900;2022-10-26T07:07:01;37.47;;;27.10;;
22284;SDS011;11311;52.192;20.900;2022-10-26T07:09:30;38.63;;;28.35;;
22284;SDS011;11311;52.192;20.900;2022-10-26T07:11:59;33.60;;;27.00;;
22284;SDS011;11311;52.192;20.900;2022-10-26T07:14:27;38.95;;;28.27;;
22284;SDS011;11311;52.192;20.900;2022-10-26T07:16:56;37.85;;;27.83;;
22284;SDS011;11311;52.192;20.900;2022-10-26T07:19:25;36.80;;;27.10;;
22284;SDS011;11311;52.192;20.900;2022-10-26T07:21:55;38.05;;;26.02;;
22284;SDS011;11311;52.192;20.900;2022-10-26T07:24:25;39.80;;;28.50;;
22284;SDS011;11311;52.192;20.900;2022-10-26T07:26:54;38.63;;;28.48;;
22284;SDS011;11311;52.192;20.900;2022-10-26T07:29:24;37.03;;;28.60;;
22284;SDS011;11311;52.192;20.900;2022-10-26T07:31:53;39.17;;;29.00;;
22284;SDS011;11311;52.192;20.900;2022-10-26T07:34:22;33.28;;;24.23;;
22284;SDS011;11311;52.192;20.900;2022-10-26T07:36:50;33.50;;;24.17;;
22284;SDS011;11311;52.192;20.900;2022-10-26T07:39:21;29.13;;;21.58;;
22284;SDS011;11311;52.192;20.900;2022-10-26T07:41:49;27.17;;;20.17;;
22284;SDS011;11311;52.192;20.900;2022-10-26T07:44:18;27.17;;;19.42;;
22284;SDS011;11311;52.192;20.900;2022-10-26T07:46:46;25.95;;;20.55;;
22284;SDS011;11311;52.192;20.900;2022-10-26T07:49:15;27.20;;;19.08;;
22284;SDS011;11311;52.192;20.900;2022-10-26T07:51:45;26.60;;;18.15;;
22284;SDS011;11311;52.192;20.900;2022-10-26T07:54:14;21.13;;;17.08;;
22284;SDS011;11311;52.192;20.900;2022-10-26T07:56:44;25.00;;;19.63;;
22284;SDS011;11311;52.192;20.900;2022-10-26T07:59:16;25.05;;;19.17;;
22284;SDS011;11311;52.192;20.900;2022-10-26T08:01:44;25.33;;;20.35;;
22284;SDS011;11311;52.192;20.900;2022-10-26T08:04:13;26.60;;;19.05;;
22284;SDS011;11311;52.192;20.900;2022-10-26T08:06:42;24.80;;;20.40;;
22284;SDS011;11311;52.192;20.900;2022-10-26T08:09:11;32.92;;;22.40;;
22284;SDS011;11311;52.192;20.900;2022-10-26T08:11:39;32.55;;;22.48;;
22284;SDS011;11311;52.192;20.900;2022-10-26T08:14:10;32.92;;;23.05;;
22284;SDS011;11311;52.192;20.900;2022-10-26T08:16:39;30.45;;;23.50;;
22284;SDS011;11311;52.192;20.900;2022-10-26T08:19:08;34.42;;;24.48;;
22284;SDS011;11311;52.192;20.900;2022-10-26T08:21:36;42.17;;;27.17;;
22284;SDS011;11311;52.192;20.900;2022-10-26T08:24:06;46.55;;;28.58;;
22284;SDS011;11311;52.192;20.900;2022-10-26T08:26:35;31.73;;;22.33;;
22284;SDS011;11311;52.192;20.900;2022-10-26T08:29:04;30.80;;;22.48;;
22284;SDS011;11311;52.192;20.900;2022-10-26T08:31:34;37.08;;;23.33;;
22284;SDS011;11311;52.192;20.900;2022-10-26T08:34:02;33.42;;;24.52;;
22284;SDS011;11311;52.192;20.900;2022-10-26T08:36:31;37.85;;;28.05;;
22284;SDS011;11311;52.192;20.900;2022-10-26T08:39:00;39.55;;;25.65;;
22284;SDS011;11311;52.192;20.900;2022-10-26T08:41:32;33.47;;;23.98;;
22284;SDS011;11311;52.192;20.900;2022-10-26T08:44:12;28.13;;;22.25;;
22284;SDS011;11311;52.192;20.900;2022-10-26T08:46:48;29.00;;;20.15;;
22284;SDS011;11311;52.192;20.900;2022-10-26T08:49:20;31.77;;;19.98;;
22284;SDS011;11311;52.192;20.900;2022-10-26T08:51:52;26.63;;;20.55;;
22284;SDS011;11311;52.192;20.900;2022-10-26T08:54:25;32.95;;;22.30;;
22284;SDS011;11311;52.192;20.900;2022-10-26T08:56:59;28.45;;;21.33;;
22284;SDS011;11311;52.192;20.900;2022-10-26T08:59:33;31.00;;;22.17;;
22284;SDS011;11311;52.192;20.900;2022-10-26T09:02:09;31.27;;;22.30;;
22284;SDS011;11311;52.192;20.900;2022-10-26T09:04:39;33.38;;;23.27;;
22284;SDS011;11311;52.192;20.900;2022-10-26T09:07:11;45.28;;;27.10;;
22284;SDS011;11311;52.192;20.900;2022-10-26T09:09:45;41.88;;;26.10;;
22284;SDS011;11311;52.192;20.900;2022-10-26T09:12:19;34.97;;;25.70;;
22284;SDS011;11311;52.192;20.900;2022-10-26T09:14:55;43.13;;;27.17;;
22284;SDS011;11311;52.192;20.900;2022-10-26T09:17:34;37.72;;;26.00;;
22284;SDS011;11311;52.192;20.900;2022-10-26T09:20:14;35.77;;;25.37;;
22284;SDS011;11311;52.192;20.900;2022-10-26T09:23:06;35.13;;;26.02;;
22284;SDS011;11311;52.192;20.900;2022-10-26T09:25:40;29.92;;;24.67;;
22284;SDS011;11311;52.192;20.900;2022-10-26T09:28:12;32.43;;;23.43;;
22284;SDS011;11311;52.192;20.900;2022-10-26T09:30:42;29.80;;;20.40;;
22284;SDS011;11311;52.192;20.900;2022-10-26T09:33:16;26.98;;;19.52;;
22284;SDS011;11311;52.192;20.900;2022-10-26T09:35:47;24.48;;;19.55;;
22284;SDS011;11311;52.192;20.900;2022-10-26T09:38:19;18.75;;;16.40;;
22284;SDS011;11311;52.192;20.900;2022-10-26T09:40:52;20.92;;;17.75;;
22284;SDS011;11311;52.192;20.900;2022-10-26T09:43:25;23.38;;;17.25;;
22284;SDS011;11311;52.192;20.900;2022-10-26T09:45:56;21.17;;;16.38;;
22284;SDS011;11311;52.192;20.900;2022-10-26T09:48:28;22.75;;;17.42;;
22284;SDS011;11311;52.192;20.900;2022-10-26T09:50:59;21.67;;;16.27;;
22284;SDS011;11311;52.192;20.900;2022-10-26T09:53:31;19.35;;;16.23;;
22284;SDS011;11311;52.192;20.900;2022-10-26T09:56:00;27.25;;;18.48;;
22284;SDS011;11311;52.192;20.900;2022-10-26T09:58:34;29.27;;;17.70;;
22284;SDS011;11311;52.192;20.900;2022-10-26T10:01:04;22.23;;;18.63;;
22284;SDS011;11311;52.192;20.900;2022-10-26T10:03:34;26.77;;;19.60;;
22284;SDS011;11311;52.192;20.900;2022-10-26T10:06:13;20.55;;;16.77;;
22284;SDS011;11311;52.192;20.900;2022-10-26T10:08:44;21.92;;;17.58;;
22284;SDS011;11311;52.192;20.900;2022-10-26T10:11:38;23.85;;;19.60;;
22284;SDS011;11311;52.192;20.900;2022-10-26T10:14:08;28.70;;;18.80;;
22284;SDS011;11311;52.192;20.900;2022-10-26T10:16:41;27.90;;;19.77;;
22284;SDS011;11311;52.192;20.900;2022-10-26T10:19:21;30.40;;;19.45;;
22284;SDS011;11311;52.192;20.900;2022-10-26T10:21:53;24.80;;;19.08;;
22284;SDS011;11311;52.192;20.900;2022-10-26T10:24:24;27.20;;;20.20;;
22284;SDS011;11311;52.192;20.900;2022-10-26T10:26:56;33.78;;;21.52;;
22284;SDS011;11311;52.192;20.900;2022-10-26T10:29:29;29.27;;;20.95;;
22284;SDS011;11311;52.192;20.900;2022-10-26T10:32:00;27.15;;;19.80;;
22284;SDS011;11311;52.192;20.900;2022-10-26T10:34:31;26.90;;;19.73;;
22284;SDS011;11311;52.192;20.900;2022-10-26T10:37:02;31.20;;;19.20;;
22284;SDS011;11311;52.192;20.900;2022-10-26T10:39:35;25.88;;;19.35;;
22284;SDS011;11311;52.192;20.900;2022-10-26T10:42:10;19.17;;;15.35;;
22284;SDS011;11311;52.192;20.900;2022-10-26T10:44:43;17.42;;;14.82;;
22284;SDS011;11311;52.192;20.900;2022-10-26T10:47:17;22.00;;;15.63;;
22284;SDS011;11311;52.192;20.900;2022-10-26T10:49:56;19.00;;;14.85;;
22284;SDS011;11311;52.192;20.900;2022-10-26T10:52:39;19.55;;;14.65;;
22284;SDS011;11311;52.192;20.900;2022-10-26T10:55:17;21.08;;;15.30;;
22284;SDS011;11311;52.192;20.900;2022-10-26T10:57:51;21.30;;;15.25;;
22284;SDS011;11311;52.192;20.900;2022-10-26T11:00:26;22.45;;;16.52;;
22284;SDS011;11311;52.192;20.900;2022-10-26T11:03:05;23.17;;;16.65;;
22284;SDS011;11311;52.192;20.900;2022-10-26T11:05:47;20.75;;;17.08;;
22284;SDS011;11311;52.192;20.900;2022-10-26T11:08:22;25.25;;;18.10;;
22284;SDS011;11311;52.192;20.900;2022-10-26T11:10:59;24.42;;;18.10;;
22284;SDS011;11311;52.192;20.900;2022-10-26T11:13:30;25.30;;;15.23;;
22284;SDS011;11311;52.192;20.900;2022-10-26T11:16:02;19.30;;;15.40;;
22284;SDS011;11311;52.192;20.900;2022-10-26T11:18:33;26.48;;;17.45;;
22284;SDS011;11311;52.192;20.900;2022-10-26T11:21:05;21.25;;;16.98;;
22284;SDS011;11311;52.192;20.900;2022-10-26T11:23:42;22.75;;;16.25;;
22284;SDS011;11311;52.192;20.900;2022-10-26T11:26:17;21.20;;;18.17;;
22284;SDS011;11311;52.192;20.900;2022-10-26T11:28:50;27.02;;;18.02;;
22284;SDS011;11311;52.192;20.900;2022-10-26T11:31:22;25.55;;;17.95;;
22284;SDS011;11311;52.192;20.900;2022-10-26T11:33:59;26.38;;;18.98;;
22284;SDS011;11311;52.192;20.900;2022-10-26T11:36:34;24.00;;;19.65;;
22284;SDS011;11311;52.192;20.900;2022-10-26T11:39:09;26.00;;;18.80;;
22284;SDS011;11311;52.192;20.900;2022-10-26T11:41:39;29.50;;;19.70;;
22284;SDS011;11311;52.192;20.900;2022-10-26T11:44:12;30.98;;;19.13;;
22284;SDS011;11311;52.192;20.900;2022-10-26T11:46:43;30.48;;;18.08;;
22284;SDS011;11311;52.192;20.900;2022-10-26T11:49:16;23.00;;;15.85;;
22284;SDS011;11311;52.192;20.900;2022-10-26T11:51:54;24.92;;;16.48;;
22284;SDS011;11311;52.192;20.900;2022-10-26T11:54:24;19.02;;;14.70;;
22284;SDS011;11311;52.192;20.900;2022-10-26T11:56:57;18.48;;;15.23;;
22284;SDS011;11311;52.192;20.900;2022-10-26T11:59:26;20.65;;;15.27;;
22284;SDS011;11311;52.192;20.900;2022-10-26T12:02:00;24.67;;;17.33;;
22284;SDS011;11311;52.192;20.900;2022-10-26T12:04:32;24.58;;;17.40;;
22284;SDS011;11311;52.192;20.900;2022-10-26T12:07:07;27.60;;;18.08;;
22284;SDS011;11311;52.192;20.900;2022-10-26T12:09:41;26.83;;;17.42;;
22284;SDS011;11311;52.192;20.900;2022-10-26T12:12:13;25.65;;;19.83;;
22284;SDS011;11311;52.192;20.900;2022-10-26T12:14:48;23.40;;;18.15;;
22284;SDS011;11311;52.192;20.900;2022-10-26T12:17:21;24.05;;;18.77;;
22284;SDS011;11311;52.192;20.900;2022-10-26T12:19:58;22.52;;;18.50;;
22284;SDS011;11311;52.192;20.900;2022-10-26T12:22:30;26.17;;;18.30;;
22284;SDS011;11311;52.192;20.900;2022-10-26T12:25:04;27.98;;;19.17;;
22284;SDS011;11311;52.192;20.900;2022-10-26T12:27:53;26.17;;;18.07;;
22284;SDS011;11311;52.192;20.900;2022-10-26T12:30:28;25.73;;;18.52;;
22284;SDS011;11311;52.192;20.900;2022-10-26T12:32:58;28.48;;;19.00;;
22284;SDS011;11311;52.192;20.900;2022-10-26T12:35:34;20.50;;;17.88;;
22284;SDS011;11311;52.192;20.900;2022-10-26T12:41:19;26.75;;;18.58;;
22284;SDS011;11311;52.192;20.900;2022-10-26T12:43:55;25.52;;;18.40;;
22284;SDS011;11311;52.192;20.900;2022-10-26T12:52:45;31.85;;;19.38;;
22284;SDS011;11311;52.192;20.900;2022-10-26T12:55:28;27.85;;;18.13;;
22284;SDS011;11311;52.192;20.900;2022-10-26T13:01:43;32.45;;;18.17;;
22284;SDS011;11311;52.192;20.900;2022-10-26T13:07:20;28.58;;;17.63;;
22284;SDS011;11311;52.192;20.900;2022-10-26T13:12:28;29.65;;;19.10;;
22284;SDS011;11311;52.192;20.900;2022-10-26T13:15:17;33.10;;;18.38;;
22284;SDS011;11311;52.192;20.900;2022-10-26T13:17:54;31.67;;;19.45;;
22284;SDS011;11311;52.192;20.900;2022-10-26T13:20:29;23.98;;;18.92;;
22284;SDS011;11311;52.192;20.900;2022-10-26T13:22:58;25.10;;;17.80;;
22284;SDS011;11311;52.192;20.900;2022-10-26T13:25:33;29.23;;;18.02;;
22284;SDS011;11311;52.192;20.900;2022-10-26T13:28:03;22.17;;;18.33;;
22284;SDS011;11311;52.192;20.900;2022-10-26T13:30:44;27.63;;;17.77;;
22284;SDS011;11311;52.192;20.900;2022-10-26T13:33:24;27.95;;;18.50;;
22284;SDS011;11311;52.192;20.900;2022-10-26T13:36:01;26.42;;;17.98;;
22284;SDS011;11311;52.192;20.900;2022-10-26T13:38:31;24.10;;;18.10;;
22284;SDS011;11311;52.192;20.900;2022-10-26T13:41:03;26.02;;;18.13;;
22284;SDS011;11311;52.192;20.900;2022-10-26T13:43:35;23.55;;;16.42;;
22284;SDS011;11311;52.192;20.900;2022-10-26T13:46:05;28.10;;;17.85;;
22284;SDS011;11311;52.192;20.900;2022-10-26T13:48:36;24.90;;;16.38;;
22284;SDS011;11311;52.192;20.900;2022-10-26T13:51:09;22.70;;;16.60;;
22284;SDS011;11311;52.192;20.900;2022-10-26T13:53:44;27.75;;;17.45;;
22284;SDS011;11311;52.192;20.900;2022-10-26T13:56:18;26.85;;;17.48;;
22284;SDS011;11311;52.192;20.900;2022-10-26T13:58:53;24.67;;;17.55;;
22284;SDS011;11311;52.192;20.900;2022-10-26T14:01:28;26.70;;;18.80;;
22284;SDS011;11311;52.192;20.900;2022-10-26T14:03:58;24.23;;;16.17;;
22284;SDS011;11311;52.192;20.900;2022-10-26T14:06:27;28.10;;;16.63;;
22284;SDS011;11311;52.192;20.900;2022-10-26T14:08:58;24.25;;;15.73;;
22284;SDS011;11311;52.192;20.900;2022-10-26T14:11:30;16.73;;;14.35;;
22284;SDS011;11311;52.192;20.900;2022-10-26T14:14:01;17.88;;;13.25;;
22284;SDS011;11311;52.192;20.900;2022-10-26T14:16:32;25.25;;;14.40;;
22284;SDS011;11311;52.192;20.900;2022-10-26T14:19:01;16.02;;;13.38;;
22284;SDS011;11311;52.192;20.900;2022-10-26T14:21:30;18.67;;;15.45;;
22284;SDS011;11311;52.192;20.900;2022-10-26T14:23:59;21.40;;;15.85;;
22284;SDS011;11311;52.192;20.900;2022-10-26T14:26:37;25.67;;;17.20;;
22284;SDS011;11311;52.192;20.900;2022-10-26T14:29:13;24.85;;;17.90;;
22284;SDS011;11311;52.192;20.900;2022-10-26T14:31:44;26.40;;;16.73;;
22284;SDS011;11311;52.192;20.900;2022-10-26T14:34:15;23.42;;;16.45;;
22284;SDS011;11311;52.192;20.900;2022-10-26T14:36:44;21.45;;;18.35;;
22284;SDS011;11311;52.192;20.900;2022-10-26T14:39:21;30.33;;;18.02;;
22284;SDS011;11311;52.192;20.900;2022-10-26T14:41:55;27.35;;;17.60;;
22284;SDS011;11311;52.192;20.900;2022-10-26T14:44:25;25.45;;;18.08;;
22284;SDS011;11311;52.192;20.900;2022-10-26T14:46:55;23.20;;;18.13;;
22284;SDS011;11311;52.192;20.900;2022-10-26T14:49:25;41.17;;;19.90;;
22284;SDS011;11311;52.192;20.900;2022-10-26T14:51:55;21.75;;;16.40;;
22284;SDS011;11311;52.192;20.900;2022-10-26T14:54:25;31.25;;;16.20;;
22284;SDS011;11311;52.192;20.900;2022-10-26T14:56:55;31.50;;;17.23;;
22284;SDS011;11311;52.192;20.900;2022-10-26T14:59:25;33.45;;;16.65;;
22284;SDS011;11311;52.192;20.900;2022-10-26T15:01:57;28.42;;;17.30;;
22284;SDS011;11311;52.192;20.900;2022-10-26T15:04:28;29.58;;;17.42;;
22284;SDS011;11311;52.192;20.900;2022-10-26T15:07:14;36.53;;;17.25;;
22284;SDS011;11311;52.192;20.900;2022-10-26T15:09:44;33.10;;;17.17;;